sensor_id;sensor_type;location;lat;lon;timestamp;pressure;altitude;pressure_sealevel;temperature;humidity
20077;BME280;12348;42.710;23.378;2023-05-15T00:02:13;95117.72;;;10.11;100.00
20077;BME280;12348;42.710;23.378;2023-05-15T00:04:40;95112.56;;;10.15;100.00
20077;BME280;12348;42.710;23.378;2023-05-15T00:07:07;95107.97;;;10.15;100.00
20077;BME280;12348;42.710;23.378;2023-05-15T00:09:36;95094.75;;;10.19;100.00
20077;BME280;12348;42.710;23.378;2023-05-15T00:12:03;95100.66;;;10.21;100.00
20077;BME280;12348;42.710;23.378;2023-05-15T00:14:30;95106.28;;;10.25;100.00
20077;BME280;12348;42.710;23.378;2023-05-15T00:16:57;95130.75;;;10.28;100.00
20077;BME280;12348;42.710;23.378;2023-05-15T00:19:24;95131.69;;;10.37;100.00
20077;BME280;12348;42.710;23.378;2023-05-15T00:21:51;95134.16;;;10.34;100.00
20077;BME280;12348;42.710;23.378;2023-05-15T00:24:18;95139.03;;;10.32;100.00
20077;BME280;12348;42.710;23.378;2023-05-15T00:26:46;95139.63;;;10.29;100.00
20077;BME280;12348;42.710;23.378;2023-05-15T00:29:13;95142.91;;;10.20;100.00
20077;BME280;12348;42.710;23.378;2023-05-15T00:31:40;95142.13;;;10.20;100.00
20077;BME280;12348;42.710;23.378;2023-05-15T00:34:07;95146.63;;;10.25;100.00
20077;BME280;12348;42.710;23.378;2023-05-15T00:36:34;95140.50;;;10.19;100.00
20077;BME280;12348;42.710;23.378;2023-05-15T00:39:01;95142.69;;;10.17;100.00
20077;BME280;12348;42.710;23.378;2023-05-15T00:41:29;95139.44;;;10.20;100.00
20077;BME280;12348;42.710;23.378;2023-05-15T00:43:59;95130.31;;;10.16;100.00
20077;BME280;12348;42.710;23.378;2023-05-15T00:46:26;95135.00;;;10.05;100.00
20077;BME280;12348;42.710;23.378;2023-05-15T00:48:55;95121.84;;;10.04;100.00
20077;BME280;12348;42.710;23.378;2023-05-15T00:51:23;95127.19;;;10.09;100.00
20077;BME280;12348;42.710;23.378;2023-05-15T00:53:50;95117.44;;;10.13;100.00
20077;BME280;12348;42.710;23.378;2023-05-15T00:56:17;95129.00;;;10.13;100.00
20077;BME280;12348;42.710;23.378;2023-05-15T00:58:45;95138.16;;;10.12;100.00
20077;BME280;12348;42.710;23.378;2023-05-15T01:01:15;95134.56;;;9.98;100.00
20077;BME280;12348;42.710;23.378;2023-05-15T01:03:42;95132.59;;;10.04;100.00
20077;BME280;12348;42.710;23.378;2023-05-15T01:06:09;95126.19;;;10.00;100.00
20077;BME280;12348;42.710;23.378;2023-05-15T01:08:37;95139.13;;;9.98;100.00
20077;BME280;12348;42.710;23.378;2023-05-15T01:11:08;95120.56;;;9.96;100.00
20077;BME280;12348;42.710;23.378;2023-05-15T01:13:35;95132.34;;;10.00;100.00
20077;BME280;12348;42.710;23.378;2023-05-15T01:16:04;95131.63;;;9.94;100.00
20077;BME280;12348;42.710;23.378;2023-05-15T01:18:33;95137.56;;;9.91;100.00
20077;BME280;12348;42.710;23.378;2023-05-15T01:21:30;95132.53;;;9.85;100.00
20077;BME280;12348;42.710;23.378;2023-05-15T01:24:15;95120.41;;;9.87;100.00
20077;BME280;12348;42.710;23.378;2023-05-15T01:27:05;95118.28;;;9.84;100.00
20077;BME280;12348;42.710;23.378;2023-05-15T01:29:36;95116.63;;;9.88;100.00
20077;BME280;12348;42.710;23.378;2023-05-15T01:32:08;95115.03;;;9.87;100.00
20077;BME280;12348;42.710;23.378;2023-05-15T01:34:43;95104.34;;;9.82;100.00
20077;BME280;12348;42.710;23.378;2023-05-15T01:37:13;95086.53;;;9.86;100.00
20077;BME280;12348;42.710;23.378;2023-05-15T01:39:44;95098.31;;;9.90;100.00
20077;BME280;12348;42.710;23.378;2023-05-15T01:42:18;95089.16;;;9.91;100.00
20077;BME280;12348;42.710;23.378;2023-05-15T01:44:51;95087.22;;;9.97;100.00
20077;BME280;12348;42.710;23.378;2023-05-15T01:47:21;95082.44;;;9.89;100.00
20077;BME280;12348;42.710;23.378;2023-05-15T01:49:54;95081.44;;;9.85;100.00
20077;BME280;12348;42.710;23.378;2023-05-15T01:52:28;95088.13;;;9.87;100.00
20077;BME280;12348;42.710;23.378;2023-05-15T01:54:55;95081.03;;;9.96;100.00
20077;BME280;12348;42.710;23.378;2023-05-15T01:57:27;95074.13;;;9.90;100.00
20077;BME280;12348;42.710;23.378;2023-05-15T01:59:56;95081.09;;;9.91;100.00
20077;BME280;12348;42.710;23.378;2023-05-15T02:02:24;95083.06;;;9.86;100.00
20077;BME280;12348;42.710;23.378;2023-05-15T02:04:52;95095.72;;;9.80;100.00
20077;BME280;12348;42.710;23.378;2023-05-15T02:07:20;95093.34;;;9.79;100.00
20077;BME280;12348;42.710;23.378;2023-05-15T02:09:48;95087.50;;;9.95;100.00
20077;BME280;12348;42.710;23.378;2023-05-15T02:12:16;95091.44;;;9.79;100.00
20077;BME280;12348;42.710;23.378;2023-05-15T02:14:45;95101.69;;;9.77;100.00
20077;BME280;12348;42.710;23.378;2023-05-15T02:17:14;95105.97;;;9.78;100.00
20077;BME280;12348;42.710;23.378;2023-05-15T02:19:41;95099.56;;;9.74;100.00
20077;BME280;12348;42.710;23.378;2023-05-15T02:22:08;95080.94;;;9.83;100.00
20077;BME280;12348;42.710;23.378;2023-05-15T02:24:35;95086.84;;;10.04;100.00
20077;BME280;12348;42.710;23.378;2023-05-15T02:27:06;95085.94;;;9.89;100.00
20077;BME280;12348;42.710;23.378;2023-05-15T02:29:41;95090.13;;;9.77;100.00
20077;BME280;12348;42.710;23.378;2023-05-15T02:32:24;95072.16;;;9.72;100.00
20077;BME280;12348;42.710;23.378;2023-05-15T02:34:58;95058.19;;;9.70;100.00
20077;BME280;12348;42.710;23.378;2023-05-15T02:37:31;95052.25;;;9.73;100.00
20077;BME280;12348;42.710;23.378;2023-05-15T02:40:01;95051.13;;;9.79;100.00
20077;BME280;12348;42.710;23.378;2023-05-15T02:42:31;95056.09;;;9.91;100.00
20077;BME280;12348;42.710;23.378;2023-05-15T02:44:59;95061.34;;;10.01;100.00
20077;BME280;12348;42.710;23.378;2023-05-15T02:47:28;95066.38;;;10.08;100.00
20077;BME280;12348;42.710;23.378;2023-05-15T02:49:56;95078.84;;;9.99;100.00
20077;BME280;12348;42.710;23.378;2023-05-15T02:52:23;95084.00;;;9.95;100.00
20077;BME280;12348;42.710;23.378;2023-05-15T02:54:50;95087.16;;;10.02;100.00
20077;BME280;12348;42.710;23.378;2023-05-15T02:57:17;95081.72;;;10.07;100.00
20077;BME280;12348;42.710;23.378;2023-05-15T02:59:44;95074.84;;;10.20;100.00
20077;BME280;12348;42.710;23.378;2023-05-15T03:02:11;95067.47;;;10.31;100.00
20077;BME280;12348;42.710;23.378;2023-05-15T03:04:39;95066.78;;;10.20;100.00
20077;BME280;12348;42.710;23.378;2023-05-15T03:07:06;95068.56;;;10.06;100.00
20077;BME280;12348;42.710;23.378;2023-05-15T03:09:33;95077.75;;;10.00;100.00
20077;BME280;12348;42.710;23.378;2023-05-15T03:12:00;95074.69;;;9.87;100.00
20077;BME280;12348;42.710;23.378;2023-05-15T03:14:27;95074.78;;;9.77;100.00
20077;BME280;12348;42.710;23.378;2023-05-15T03:16:53;95083.31;;;9.84;100.00
20077;BME280;12348;42.710;23.378;2023-05-15T03:19:20;95095.06;;;9.93;100.00
20077;BME280;12348;42.710;23.378;2023-05-15T03:21:48;95083.72;;;9.96;100.00
20077;BME280;12348;42.710;23.378;2023-05-15T03:24:15;95081.56;;;9.99;100.00
20077;BME280;12348;42.710;23.378;2023-05-15T03:26:42;95081.88;;;9.92;100.00
20077;BME280;12348;42.710;23.378;2023-05-15T03:29:09;95081.88;;;9.92;100.00
20077;BME280;12348;42.710;23.378;2023-05-15T03:31:36;95079.50;;;9.90;100.00
20077;BME280;12348;42.710;23.378;2023-05-15T03:34:03;95074.22;;;10.04;100.00
20077;BME280;12348;42.710;23.378;2023-05-15T03:36:30;95067.47;;;10.07;100.00
20077;BME280;12348;42.710;23.378;2023-05-15T03:38:58;95068.09;;;9.99;100.00
20077;BME280;12348;42.710;23.378;2023-05-15T03:41:25;95060.91;;;9.94;100.00
20077;BME280;12348;42.710;23.378;2023-05-15T03:43:53;95062.78;;;9.93;100.00
20077;BME280;12348;42.710;23.378;2023-05-15T03:46:19;95071.88;;;9.98;100.00
20077;BME280;12348;42.710;23.378;2023-05-15T03:48:46;95062.38;;;10.05;100.00
20077;BME280;12348;42.710;23.378;2023-05-15T03:51:13;95063.97;;;10.06;100.00
20077;BME280;12348;42.710;23.378;2023-05-15T03:53:40;95074.88;;;10.15;100.00
20077;BME280;12348;42.710;23.378;2023-05-15T03:56:08;95074.41;;;10.13;100.00
20077;BME280;12348;42.710;23.378;2023-05-15T03:58:35;95073.22;;;10.19;100.00
20077;BME280;12348;42.710;23.378;2023-05-15T04:01:02;95077.31;;;10.16;100.00
20077;BME280;12348;42.710;23.378;2023-05-15T04:03:28;95072.56;;;10.32;100.00
20077;BME280;12348;42.710;23.378;2023-05-15T04:05:55;95079.84;;;10.32;100.00
20077;BME280;12348;42.710;23.378;2023-05-15T04:08:22;95078.84;;;10.47;100.00
20077;BME280;12348;42.710;23.378;2023-05-15T04:10:49;95084.50;;;10.45;100.00
20077;BME280;12348;42.710;23.378;2023-05-15T04:13:17;95068.78;;;10.33;100.00
20077;BME280;12348;42.710;23.378;2023-05-15T04:15:44;95074.72;;;10.30;100.00
20077;BME280;12348;42.710;23.378;2023-05-15T04:18:11;95075.31;;;10.27;100.00
20077;BME280;12348;42.710;23.378;2023-05-15T04:20:38;95088.06;;;10.40;100.00
20077;BME280;12348;42.710;23.378;2023-05-15T04:23:05;95096.94;;;10.60;100.00
20077;BME280;12348;42.710;23.378;2023-05-15T04:25:32;95100.81;;;10.54;100.00
20077;BME280;12348;42.710;23.378;2023-05-15T04:27:58;95092.56;;;10.45;100.00
20077;BME280;12348;42.710;23.378;2023-05-15T04:30:27;95092.66;;;10.40;100.00
20077;BME280;12348;42.710;23.378;2023-05-15T04:32:54;95088.06;;;10.40;100.00
20077;BME280;12348;42.710;23.378;2023-05-15T04:35:21;95089.59;;;10.47;100.00
20077;BME280;12348;42.710;23.378;2023-05-15T04:37:47;95082.41;;;10.61;100.00
20077;BME280;12348;42.710;23.378;2023-05-15T04:40:14;95087.13;;;10.50;100.00
20077;BME280;12348;42.710;23.378;2023-05-15T04:42:41;95072.94;;;10.44;100.00
20077;BME280;12348;42.710;23.378;2023-05-15T04:45:08;95074.34;;;10.42;100.00
20077;BME280;12348;42.710;23.378;2023-05-15T04:47:36;95065.66;;;10.45;100.00
20077;BME280;12348;42.710;23.378;2023-05-15T04:50:04;95049.88;;;10.57;100.00
20077;BME280;12348;42.710;23.378;2023-05-15T04:52:32;95052.94;;;10.51;100.00
20077;BME280;12348;42.710;23.378;2023-05-15T04:54:58;95065.03;;;10.53;100.00
20077;BME280;12348;42.710;23.378;2023-05-15T04:57:25;95075.34;;;10.65;100.00
20077;BME280;12348;42.710;23.378;2023-05-15T04:59:52;95079.88;;;10.70;100.00
20077;BME280;12348;42.710;23.378;2023-05-15T05:02:20;95067.19;;;10.70;100.00
20077;BME280;12348;42.710;23.378;2023-05-15T05:04:49;95075.19;;;10.75;100.00
20077;BME280;12348;42.710;23.378;2023-05-15T05:07:16;95074.03;;;10.81;100.00
20077;BME280;12348;42.710;23.378;2023-05-15T05:09:43;95073.22;;;11.00;100.00
20077;BME280;12348;42.710;23.378;2023-05-15T05:12:10;95062.97;;;10.83;100.00
20077;BME280;12348;42.710;23.378;2023-05-15T05:14:37;95064.59;;;10.84;100.00
20077;BME280;12348;42.710;23.378;2023-05-15T05:17:06;95050.09;;;10.80;100.00
20077;BME280;12348;42.710;23.378;2023-05-15T05:19:33;95052.19;;;10.64;100.00
20077;BME280;12348;42.710;23.378;2023-05-15T05:22:02;95047.91;;;10.63;100.00
20077;BME280;12348;42.710;23.378;2023-05-15T05:24:29;95058.91;;;10.66;100.00
20077;BME280;12348;42.710;23.378;2023-05-15T05:26:56;95057.00;;;10.67;100.00
20077;BME280;12348;42.710;23.378;2023-05-15T05:29:23;95057.56;;;10.64;100.00
20077;BME280;12348;42.710;23.378;2023-05-15T05:31:50;95058.53;;;10.73;100.00
20077;BME280;12348;42.710;23.378;2023-05-15T05:34:18;95046.97;;;10.73;100.00
20077;BME280;12348;42.710;23.378;2023-05-15T05:36:45;95056.72;;;10.87;100.00
20077;BME280;12348;42.710;23.378;2023-05-15T05:39:14;95054.16;;;10.96;100.00
20077;BME280;12348;42.710;23.378;2023-05-15T05:41:42;95047.88;;;11.01;100.00
20077;BME280;12348;42.710;23.378;2023-05-15T05:44:08;95050.94;;;11.13;100.00
20077;BME280;12348;42.710;23.378;2023-05-15T05:46:35;95052.69;;;11.36;100.00
20077;BME280;12348;42.710;23.378;2023-05-15T05:49:02;95049.63;;;11.71;100.00
20077;BME280;12348;42.710;23.378;2023-05-15T05:51:29;95056.06;;;12.02;100.00
20077;BME280;12348;42.710;23.378;2023-05-15T05:53:56;95059.97;;;11.96;100.00
20077;BME280;12348;42.710;23.378;2023-05-15T05:56:24;95055.66;;;12.23;100.00
20077;BME280;12348;42.710;23.378;2023-05-15T05:58:51;95058.56;;;12.40;100.00
20077;BME280;12348;42.710;23.378;2023-05-15T06:01:18;95056.19;;;12.75;100.00
20077;BME280;12348;42.710;23.378;2023-05-15T06:03:45;95049.72;;;12.84;100.00
20077;BME280;12348;42.710;23.378;2023-05-15T06:06:12;95058.72;;;12.94;100.00
20077;BME280;12348;42.710;23.378;2023-05-15T06:08:39;95069.53;;;12.94;100.00
20077;BME280;12348;42.710;23.378;2023-05-15T06:11:06;95062.16;;;12.85;100.00
20077;BME280;12348;42.710;23.378;2023-05-15T06:13:34;95065.13;;;12.84;100.00
20077;BME280;12348;42.710;23.378;2023-05-15T06:16:01;95070.09;;;12.68;100.00
20077;BME280;12348;42.710;23.378;2023-05-15T06:18:28;95049.59;;;12.67;100.00
20077;BME280;12348;42.710;23.378;2023-05-15T06:20:55;95033.97;;;12.78;100.00
20077;BME280;12348;42.710;23.378;2023-05-15T06:23:24;95047.16;;;12.79;100.00
20077;BME280;12348;42.710;23.378;2023-05-15T06:25:51;95046.53;;;12.82;100.00
20077;BME280;12348;42.710;23.378;2023-05-15T06:28:18;95048.63;;;12.85;100.00
20077;BME280;12348;42.710;23.378;2023-05-15T06:30:46;95054.88;;;12.72;100.00
20077;BME280;12348;42.710;23.378;2023-05-15T06:33:13;95063.63;;;12.55;100.00
20077;BME280;12348;42.710;23.378;2023-05-15T06:35:40;95060.81;;;12.60;100.00
20077;BME280;12348;42.710;23.378;2023-05-15T06:38:07;95064.47;;;12.78;100.00
20077;BME280;12348;42.710;23.378;2023-05-15T06:40:34;95055.88;;;13.21;100.00
20077;BME280;12348;42.710;23.378;2023-05-15T06:43:01;95070.47;;;13.12;100.00
20077;BME280;12348;42.710;23.378;2023-05-15T06:45:28;95063.75;;;13.09;100.00
20077;BME280;12348;42.710;23.378;2023-05-15T06:47:56;95071.72;;;13.28;100.00
20077;BME280;12348;42.710;23.378;2023-05-15T06:50:23;95075.00;;;13.70;100.00
20077;BME280;12348;42.710;23.378;2023-05-15T06:52:50;95053.19;;;13.44;100.00
20077;BME280;12348;42.710;23.378;2023-05-15T06:55:16;95072.81;;;13.27;100.00
20077;BME280;12348;42.710;23.378;2023-05-15T06:57:43;95065.84;;;13.12;100.00
20077;BME280;12348;42.710;23.378;2023-05-15T07:00:11;95067.97;;;13.38;100.00
20077;BME280;12348;42.710;23.378;2023-05-15T07:02:38;95075.34;;;13.23;100.00
20077;BME280;12348;42.710;23.378;2023-05-15T07:05:07;95074.81;;;13.66;100.00
20077;BME280;12348;42.710;23.378;2023-05-15T07:07:34;95066.91;;;14.10;100.00
20077;BME280;12348;42.710;23.378;2023-05-15T07:10:01;95065.78;;;14.50;100.00
20077;BME280;12348;42.710;23.378;2023-05-15T07:12:31;95072.69;;;14.25;100.00
20077;BME280;12348;42.710;23.378;2023-05-15T07:15:01;95059.22;;;14.03;100.00
20077;BME280;12348;42.710;23.378;2023-05-15T07:17:28;95070.47;;;13.88;100.00
20077;BME280;12348;42.710;23.378;2023-05-15T07:19:55;95063.03;;;14.02;100.00
20077;BME280;12348;42.710;23.378;2023-05-15T07:22:25;95071.41;;;13.83;100.00
20077;BME280;12348;42.710;23.378;2023-05-15T07:24:54;95058.03;;;13.78;100.00
20077;BME280;12348;42.710;23.378;2023-05-15T07:27:20;95055.88;;;14.06;100.00
20077;BME280;12348;42.710;23.378;2023-05-15T07:29:47;95051.63;;;14.14;100.00
20077;BME280;12348;42.710;23.378;2023-05-15T07:32:14;95065.81;;;14.19;100.00
20077;BME280;12348;42.710;23.378;2023-05-15T07:34:41;95084.53;;;13.98;100.00
20077;BME280;12348;42.710;23.378;2023-05-15T07:37:08;95068.03;;;13.77;100.00
20077;BME280;12348;42.710;23.378;2023-05-15T07:39:42;95059.34;;;14.46;100.00
20077;BME280;12348;42.710;23.378;2023-05-15T07:42:10;95061.22;;;14.28;100.00
20077;BME280;12348;42.710;23.378;2023-05-15T07:44:37;95060.59;;;14.23;100.00
20077;BME280;12348;42.710;23.378;2023-05-15T07:47:04;95068.00;;;14.09;100.00
20077;BME280;12348;42.710;23.378;2023-05-15T07:49:31;95072.59;;;13.68;100.00
20077;BME280;12348;42.710;23.378;2023-05-15T07:51:59;95061.78;;;13.37;100.00
20077;BME280;12348;42.710;23.378;2023-05-15T07:54:26;95066.00;;;13.52;100.00
20077;BME280;12348;42.710;23.378;2023-05-15T07:56:55;95050.94;;;13.37;100.00
20077;BME280;12348;42.710;23.378;2023-05-15T07:59:23;95064.59;;;13.32;100.00
20077;BME280;12348;42.710;23.378;2023-05-15T08:01:49;95088.00;;;13.37;100.00
20077;BME280;12348;42.710;23.378;2023-05-15T08:04:16;95094.22;;;13.37;100.00
20077;BME280;12348;42.710;23.378;2023-05-15T08:06:43;95091.81;;;13.36;100.00
20077;BME280;12348;42.710;23.378;2023-05-15T08:09:10;95083.25;;;12.83;100.00
20077;BME280;12348;42.710;23.378;2023-05-15T08:11:37;95094.09;;;13.06;100.00
20077;BME280;12348;42.710;23.378;2023-05-15T08:14:05;95096.38;;;12.76;100.00
20077;BME280;12348;42.710;23.378;2023-05-15T08:16:32;95122.41;;;12.72;100.00
20077;BME280;12348;42.710;23.378;2023-05-15T08:18:59;95085.00;;;12.66;100.00
20077;BME280;12348;42.710;23.378;2023-05-15T08:21:31;95096.50;;;12.71;100.00
20077;BME280;12348;42.710;23.378;2023-05-15T08:23:58;95096.28;;;12.81;100.00
20077;BME280;12348;42.710;23.378;2023-05-15T08:26:24;95084.16;;;12.93;100.00
20077;BME280;12348;42.710;23.378;2023-05-15T08:28:51;95089.75;;;12.96;100.00
20077;BME280;12348;42.710;23.378;2023-05-15T08:31:19;95087.09;;;13.05;100.00
20077;BME280;12348;42.710;23.378;2023-05-15T08:33:46;95093.72;;;13.35;100.00
20077;BME280;12348;42.710;23.378;2023-05-15T08:36:13;95102.91;;;13.12;100.00
20077;BME280;12348;42.710;23.378;2023-05-15T08:38:42;95072.59;;;13.37;100.00
20077;BME280;12348;42.710;23.378;2023-05-15T08:41:15;95093.41;;;13.37;100.00
20077;BME280;12348;42.710;23.378;2023-05-15T08:43:48;95081.19;;;13.39;100.00
20077;BME280;12348;42.710;23.378;2023-05-15T08:46:20;95063.53;;;13.42;100.00
20077;BME280;12348;42.710;23.378;2023-05-15T08:48:48;95088.66;;;13.65;100.00
20077;BME280;12348;42.710;23.378;2023-05-15T08:51:18;95073.03;;;13.62;100.00
20077;BME280;12348;42.710;23.378;2023-05-15T08:53:46;95061.41;;;13.61;100.00
20077;BME280;12348;42.710;23.378;2023-05-15T08:56:13;95061.66;;;13.51;100.00
20077;BME280;12348;42.710;23.378;2023-05-15T08:58:40;95066.50;;;13.31;100.00
20077;BME280;12348;42.710;23.378;2023-05-15T09:01:07;95067.00;;;13.33;100.00
20077;BME280;12348;42.710;23.378;2023-05-15T09:03:36;95051.13;;;13.18;100.00
20077;BME280;12348;42.710;23.378;2023-05-15T09:06:04;95053.56;;;13.28;100.00
20077;BME280;12348;42.710;23.378;2023-05-15T09:08:32;95050.50;;;13.44;100.00
20077;BME280;12348;42.710;23.378;2023-05-15T09:11:01;95026.16;;;13.44;100.00
20077;BME280;12348;42.710;23.378;2023-05-15T09:13:28;95051.03;;;13.54;100.00
20077;BME280;12348;42.710;23.378;2023-05-15T09:15:55;95051.94;;;13.72;100.00
20077;BME280;12348;42.710;23.378;2023-05-15T09:18:22;95060.88;;;13.50;100.00
20077;BME280;12348;42.710;23.378;2023-05-15T09:20:51;95054.88;;;13.62;100.00
20077;BME280;12348;42.710;23.378;2023-05-15T09:23:22;95041.03;;;13.95;100.00
20077;BME280;12348;42.710;23.378;2023-05-15T09:25:49;95040.94;;;14.17;100.00
20077;BME280;12348;42.710;23.378;2023-05-15T09:28:25;95028.72;;;14.28;100.00
20077;BME280;12348;42.710;23.378;2023-05-15T09:30:58;95013.75;;;14.40;100.00
20077;BME280;12348;42.710;23.378;2023-05-15T09:33:32;95015.50;;;14.36;100.00
20077;BME280;12348;42.710;23.378;2023-05-15T09:36:02;95030.91;;;14.18;100.00
20077;BME280;12348;42.710;23.378;2023-05-15T09:38:31;95020.38;;;14.07;100.00
20077;BME280;12348;42.710;23.378;2023-05-15T09:41:02;95006.38;;;14.14;100.00
20077;BME280;12348;42.710;23.378;2023-05-15T09:43:32;95009.00;;;14.45;100.00
20077;BME280;12348;42.710;23.378;2023-05-15T09:45:59;95008.50;;;14.35;100.00
20077;BME280;12348;42.710;23.378;2023-05-15T09:48:27;95008.97;;;14.19;100.00
20077;BME280;12348;42.710;23.378;2023-05-15T09:50:54;94992.91;;;14.49;100.00
20077;BME280;12348;42.710;23.378;2023-05-15T09:53:23;94985.13;;;14.73;100.00
20077;BME280;12348;42.710;23.378;2023-05-15T09:55:51;94995.75;;;14.44;100.00
20077;BME280;12348;42.710;23.378;2023-05-15T09:58:18;94981.38;;;14.26;100.00
20077;BME280;12348;42.710;23.378;2023-05-15T10:00:46;94963.09;;;14.49;100.00
20077;BME280;12348;42.710;23.378;2023-05-15T10:03:13;94978.25;;;14.67;100.00
20077;BME280;12348;42.710;23.378;2023-05-15T10:05:41;94974.28;;;14.91;100.00
20077;BME280;12348;42.710;23.378;2023-05-15T10:08:08;94973.00;;;14.79;100.00
20077;BME280;12348;42.710;23.378;2023-05-15T10:10:37;94991.66;;;14.90;100.00
20077;BME280;12348;42.710;23.378;2023-05-15T10:13:06;94976.97;;;15.08;100.00
20077;BME280;12348;42.710;23.378;2023-05-15T10:15:34;94970.88;;;15.11;100.00
20077;BME280;12348;42.710;23.378;2023-05-15T10:18:03;94958.13;;;15.12;100.00
20077;BME280;12348;42.710;23.378;2023-05-15T10:20:30;94968.34;;;15.06;100.00
20077;BME280;12348;42.710;23.378;2023-05-15T10:23:02;94977.44;;;15.10;100.00
20077;BME280;12348;42.710;23.378;2023-05-15T10:25:32;94982.66;;;15.33;100.00
20077;BME280;12348;42.710;23.378;2023-05-15T10:28:06;95005.00;;;15.30;100.00
20077;BME280;12348;42.710;23.378;2023-05-15T10:30:34;95012.22;;;15.17;100.00
20077;BME280;12348;42.710;23.378;2023-05-15T10:33:03;94996.75;;;15.09;100.00
20077;BME280;12348;42.710;23.378;2023-05-15T10:35:30;95006.66;;;14.87;100.00
20077;BME280;12348;42.710;23.378;2023-05-15T10:37:57;95002.34;;;14.77;100.00
20077;BME280;12348;42.710;23.378;2023-05-15T10:40:24;95010.78;;;14.93;100.00
20077;BME280;12348;42.710;23.378;2023-05-15T10:42:53;95032.16;;;14.95;100.00
20077;BME280;12348;42.710;23.378;2023-05-15T10:45:22;95020.06;;;14.84;100.00
20077;BME280;12348;42.710;23.378;2023-05-15T10:47:49;95015.13;;;14.94;100.00
20077;BME280;12348;42.710;23.378;2023-05-15T10:50:18;95020.06;;;14.84;100.00
20077;BME280;12348;42.710;23.378;2023-05-15T10:52:45;95013.66;;;14.88;100.00
20077;BME280;12348;42.710;23.378;2023-05-15T10:55:19;95007.94;;;14.98;100.00
20077;BME280;12348;42.710;23.378;2023-05-15T10:57:53;95006.97;;;14.94;100.00
20077;BME280;12348;42.710;23.378;2023-05-15T11:00:26;94999.97;;;14.76;100.00
20077;BME280;12348;42.710;23.378;2023-05-15T11:02:53;95014.78;;;14.70;100.00
20077;BME280;12348;42.710;23.378;2023-05-15T11:05:21;95004.22;;;14.42;100.00
20077;BME280;12348;42.710;23.378;2023-05-15T11:08:27;95008.72;;;14.55;100.00
20077;BME280;12348;42.710;23.378;2023-05-15T11:10:54;95005.84;;;14.52;100.00
20077;BME280;12348;42.710;23.378;2023-05-15T11:13:22;94987.34;;;14.54;100.00
20077;BME280;12348;42.710;23.378;2023-05-15T11:15:50;94998.97;;;14.46;100.00
20077;BME280;12348;42.710;23.378;2023-05-15T11:18:18;94982.19;;;14.26;100.00
20077;BME280;12348;42.710;23.378;2023-05-15T11:21:04;94986.81;;;14.26;100.00
20077;BME280;12348;42.710;23.378;2023-05-15T11:23:37;94991.19;;;14.53;100.00
20077;BME280;12348;42.710;23.378;2023-05-15T11:26:04;94987.50;;;14.49;100.00
20077;BME280;12348;42.710;23.378;2023-05-15T11:28:40;94985.59;;;14.49;100.00
20077;BME280;12348;42.710;23.378;2023-05-15T11:31:09;95001.00;;;14.40;100.00
20077;BME280;12348;42.710;23.378;2023-05-15T11:33:37;94988.00;;;14.51;100.00
20077;BME280;12348;42.710;23.378;2023-05-15T11:36:05;94995.16;;;14.55;100.00
20077;BME280;12348;42.710;23.378;2023-05-15T11:38:36;95007.13;;;14.63;100.00
20077;BME280;12348;42.710;23.378;2023-05-15T11:41:16;94990.84;;;15.07;100.00
20077;BME280;12348;42.710;23.378;2023-05-15T11:43:43;94987.97;;;15.12;100.00
20077;BME280;12348;42.710;23.378;2023-05-15T11:46:15;94960.03;;;15.20;100.00
20077;BME280;12348;42.710;23.378;2023-05-15T11:48:44;94972.53;;;14.95;100.00
20077;BME280;12348;42.710;23.378;2023-05-15T11:51:15;94959.53;;;15.26;100.00
20077;BME280;12348;42.710;23.378;2023-05-15T11:53:42;94943.13;;;15.14;100.00
20077;BME280;12348;42.710;23.378;2023-05-15T11:56:12;94952.09;;;15.06;100.00
20077;BME280;12348;42.710;23.378;2023-05-15T11:58:42;94955.97;;;15.43;100.00
20077;BME280;12348;42.710;23.378;2023-05-15T12:01:10;94957.38;;;15.96;100.00
20077;BME280;12348;42.710;23.378;2023-05-15T12:03:39;94971.91;;;16.51;100.00
20077;BME280;12348;42.710;23.378;2023-05-15T12:06:06;94962.72;;;16.85;100.00
20077;BME280;12348;42.710;23.378;2023-05-15T12:08:34;94957.19;;;16.94;100.00
20077;BME280;12348;42.710;23.378;2023-05-15T12:11:03;94946.72;;;16.84;100.00
20077;BME280;12348;42.710;23.378;2023-05-15T12:13:30;94948.44;;;16.88;100.00
20077;BME280;12348;42.710;23.378;2023-05-15T12:15:58;94947.28;;;17.10;100.00
20077;BME280;12348;42.710;23.378;2023-05-15T12:18:25;94948.72;;;17.41;100.00
20077;BME280;12348;42.710;23.378;2023-05-15T12:20:53;94946.00;;;17.53;100.00
20077;BME280;12348;42.710;23.378;2023-05-15T12:23:22;94930.81;;;17.64;100.00
20077;BME280;12348;42.710;23.378;2023-05-15T12:25:51;94938.88;;;17.49;100.00
20077;BME280;12348;42.710;23.378;2023-05-15T12:28:22;94938.94;;;17.28;100.00
20077;BME280;12348;42.710;23.378;2023-05-15T12:30:49;94929.78;;;16.99;100.00
20077;BME280;12348;42.710;23.378;2023-05-15T12:33:17;94894.66;;;17.06;100.00
20077;BME280;12348;42.710;23.378;2023-05-15T12:35:54;94889.34;;;16.56;100.00
20077;BME280;12348;42.710;23.378;2023-05-15T12:38:24;94888.44;;;16.52;100.00
20077;BME280;12348;42.710;23.378;2023-05-15T12:40:51;94889.97;;;16.19;100.00
20077;BME280;12348;42.710;23.378;2023-05-15T12:43:19;94893.59;;;16.03;100.00
20077;BME280;12348;42.710;23.378;2023-05-15T12:45:51;94874.03;;;16.09;100.00
20077;BME280;12348;42.710;23.378;2023-05-15T12:48:19;94868.41;;;16.35;100.00